This is the latest recevied weather packets stored in our database for station/object KO5MO-3. If no packets are shown the sender has not sent any weather packets the latest 10 day(s).
| Time | Temp. | Humidity | Pressure | Rain* | Wind** | Luminosity | Snow |
|---|---|---|---|---|---|---|---|
| 1777647198 | 24.44° C | 41% | 1009.1 hPa | 0 mm | - | - | - |
| 1777646898 | 23.89° C | 41% | 1009.1 hPa | 0 mm | - | - | - |
| 1777646598 | 26.11° C | 38% | 1009.1 hPa | 0 mm | - | - | - |
| 1777646298 | 24.44° C | 41% | 1009 hPa | 0 mm | - | - | - |
| 1777645998 | 23.89° C | 41% | 1009 hPa | 0 mm | - | - | - |
| 1777645698 | 25° C | 40% | 1009 hPa | 0 mm | - | - | - |
| 1777645398 | 24.44° C | 41% | 1008.9 hPa | 0 mm | - | - | - |
| 1777645098 | 23.89° C | 41% | 1008.8 hPa | 0 mm | - | - | - |
| 1777644798 | 23.33° C | 43% | 1008.8 hPa | 0 mm | - | - | - |
| 1777644498 | 22.78° C | 43% | 1008.7 hPa | 0 mm | - | - | - |
| 1777644198 | 23.33° C | 43% | 1008.7 hPa | 0 mm | - | - | - |
| 1777643898 | 22.78° C | 44% | 1008.6 hPa | 0 mm | - | - | - |
| 1777643598 | 22.78° C | 43% | 1008.4 hPa | 0 mm | - | - | - |
| 1777643298 | 22.78° C | 43% | 1008.4 hPa | 0 mm | - | - | - |
| 1777642998 | 22.78° C | 46% | 1008.3 hPa | 0 mm | - | - | - |
| 1777642698 | 22.22° C | 46% | 1008.2 hPa | 0 mm | - | - | - |
| 1777642398 | 22.22° C | 45% | 1008.2 hPa | 0 mm | - | - | - |
| 1777642098 | 20.56° C | 47% | 1008.2 hPa | 0 mm | - | - | - |
| 1777641798 | 20° C | 49% | 1008.1 hPa | 0 mm | - | - | - |
| 1777641498 | 20° C | 48% | 1008 hPa | 0 mm | - | - | - |
| 1777641198 | 19.44° C | 49% | 1007.9 hPa | 0 mm | - | - | - |
| 1777640898 | 18.89° C | 50% | 1007.8 hPa | 0 mm | - | - | - |
| 1777640598 | 18.89° C | 50% | 1007.7 hPa | 0 mm | - | - | - |
| 1777640298 | 18.33° C | 51% | 1007.6 hPa | 0 mm | - | - | - |
| 1777639998 | 17.78° C | 51% | 1007.6 hPa | 0 mm | - | - | - |
* Rain latest hour (hover to see other rain measurements)
** Current wind speed in m/s (hover to see current wind gust speed)